createdAt,value
2019-03-19T00:02:17.515Z,88.18
2019-03-19T00:04:49.201Z,87.83
2019-03-19T00:07:17.791Z,88.02
2019-03-19T00:09:49.298Z,88.32
2019-03-19T00:12:17.906Z,88.32
2019-03-19T00:14:47.357Z,88.42
2019-03-19T00:17:16.380Z,88.48
2019-03-19T00:19:45.012Z,88.46
2019-03-19T00:22:13.586Z,88.74
2019-03-19T00:24:45.218Z,89.02
2019-03-19T00:27:14.233Z,89.15
2019-03-19T00:29:45.731Z,89.34
2019-03-19T00:32:14.750Z,89.48
2019-03-19T00:34:43.373Z,89.53
2019-03-19T00:37:14.948Z,89.31
2019-03-19T00:39:43.663Z,89.09
2019-03-19T00:42:13.818Z,88.89
2019-03-19T00:44:45.190Z,88.89
2019-03-19T00:47:13.806Z,88.94
2019-03-19T00:49:45.392Z,89.12
2019-03-19T00:52:14.015Z,89.16
2019-03-19T00:54:46.204Z,89.10
2019-03-19T00:57:14.800Z,89.27
2019-03-19T00:59:46.422Z,89.35
2019-03-19T01:02:15.133Z,89.01
2019-03-19T01:04:46.423Z,88.96
2019-03-19T01:07:17.801Z,88.70
2019-03-19T01:09:49.381Z,88.38
2019-03-19T01:12:17.993Z,88.38
2019-03-19T01:14:46.819Z,88.04
2019-03-19T01:17:15.432Z,87.99
2019-03-19T01:19:44.456Z,88.07
2019-03-19T01:22:14.711Z,88.17
2019-03-19T01:24:49.567Z,88.34
2019-03-19T01:27:18.215Z,88.57
2019-03-19T01:29:49.820Z,88.89
2019-03-19T01:32:18.802Z,88.96
2019-03-19T01:34:50.527Z,89.01
2019-03-19T01:37:19.140Z,89.47
2019-03-19T01:39:47.749Z,89.52
2019-03-19T01:42:16.368Z,89.65
2019-03-19T01:44:47.735Z,89.56
2019-03-19T01:47:16.355Z,89.73
2019-03-19T01:49:44.966Z,89.91
2019-03-19T01:52:13.981Z,90.05
2019-03-19T01:54:45.778Z,90.15
2019-03-19T01:57:14.386Z,90.17
2019-03-19T01:59:45.684Z,90.20
2019-03-19T02:02:14.282Z,90.01
2019-03-19T02:04:42.909Z,89.59
2019-03-19T02:07:11.514Z,89.34
2019-03-19T02:09:42.841Z,89.33
2019-03-19T02:12:13.121Z,88.91
2019-03-19T02:14:41.758Z,88.75
2019-03-19T02:17:14.587Z,88.50
2019-03-19T02:19:48.935Z,88.44
2019-03-19T02:22:17.550Z,88.28
2019-03-19T02:24:46.182Z,88.19
2019-03-19T02:27:15.105Z,87.90
2019-03-19T02:29:50.178Z,87.97
2019-03-19T02:32:23.145Z,88.25
2019-03-19T02:34:52.131Z,87.79
2019-03-19T02:37:20.836Z,87.79
2019-03-19T02:39:54.265Z,87.27
2019-03-19T02:42:23.795Z,86.72
2019-03-19T02:44:54.275Z,86.88
2019-03-19T02:47:24.421Z,86.93
2019-03-19T02:50:00.608Z,87.11
2019-03-19T02:52:34.561Z,86.67
2019-03-19T02:55:03.181Z,86.44
2019-03-19T02:57:34.760Z,86.45
2019-03-19T03:00:13.519Z,86.23
2019-03-19T03:02:43.977Z,86.24
2019-03-19T03:05:17.610Z,86.04
2019-03-19T03:07:55.392Z,86.15
2019-03-19T03:10:27.235Z,86.13
2019-03-19T03:12:58.848Z,86.33
2019-03-19T03:15:30.619Z,86.64
2019-03-19T03:18:00.843Z,86.41
2019-03-19T03:20:32.522Z,86.39
2019-03-19T03:23:04.103Z,86.32
2019-03-19T03:25:35.695Z,86.00
2019-03-19T03:28:07.159Z,85.99
2019-03-19T03:30:35.886Z,86.16
2019-03-19T03:33:04.962Z,86.44
2019-03-19T03:35:33.553Z,86.20
2019-03-19T03:38:05.060Z,86.81
2019-03-19T03:40:36.430Z,86.81
2019-03-19T03:43:05.262Z,86.47
2019-03-19T03:45:33.865Z,86.63
2019-03-19T03:48:02.509Z,87.00
2019-03-19T03:50:31.138Z,86.73
2019-03-19T03:53:02.619Z,86.89
2019-03-19T03:55:31.518Z,86.70
2019-03-19T03:58:03.572Z,87.26
2019-03-19T04:00:32.374Z,87.22
2019-03-19T04:03:00.992Z,87.46
2019-03-19T04:05:30.029Z,87.48
2019-03-19T04:08:01.415Z,87.54
2019-03-19T04:10:32.692Z,87.44
2019-03-19T04:13:04.497Z,87.19
2019-03-19T04:15:33.092Z,86.92
2019-03-19T04:18:01.742Z,87.59
2019-03-19T04:20:30.398Z,87.81
2019-03-19T04:22:59.140Z,87.81
2019-03-19T04:25:28.188Z,87.50
2019-03-19T04:27:56.784Z,87.69
2019-03-19T04:30:25.389Z,87.41
2019-03-19T04:32:56.680Z,87.55
2019-03-19T04:35:28.061Z,88.69
2019-03-19T04:37:56.674Z,88.08
2019-03-19T04:40:28.048Z,87.95
2019-03-19T04:42:56.657Z,87.65
2019-03-19T04:45:25.266Z,87.38
2019-03-19T04:47:54.342Z,87.60
2019-03-19T04:50:26.081Z,87.60
2019-03-19T04:52:54.696Z,87.61
2019-03-19T04:55:26.375Z,86.74
2019-03-19T04:57:55.231Z,87.25
2019-03-19T05:00:23.900Z,87.77
2019-03-19T05:02:56.246Z,87.47
2019-03-19T05:05:25.966Z,88.08
2019-03-19T05:07:57.970Z,88.36
2019-03-19T05:10:28.113Z,87.93
2019-03-19T05:13:01.302Z,87.80
2019-03-19T05:15:30.924Z,88.46
2019-03-19T05:18:03.739Z,88.02
2019-03-19T05:20:53.510Z,88.21
2019-03-19T05:23:22.943Z,88.11
2019-03-19T05:25:52.826Z,87.96
2019-03-19T05:28:23.024Z,88.07
2019-03-19T05:30:57.454Z,88.26
2019-03-19T05:33:26.079Z,87.91
2019-03-19T05:35:55.097Z,87.91
2019-03-19T05:38:26.518Z,87.87
2019-03-19T05:40:57.910Z,87.38
2019-03-19T05:43:26.528Z,87.50
2019-03-19T05:45:55.139Z,87.19
2019-03-19T05:48:26.730Z,86.97
2019-03-19T05:50:55.352Z,86.83
2019-03-19T05:53:27.074Z,87.62
2019-03-19T05:55:55.753Z,87.13
2019-03-19T05:58:24.311Z,87.40
2019-03-19T06:00:52.872Z,87.24
2019-03-19T06:03:21.473Z,87.43
2019-03-19T06:05:54.008Z,87.58
2019-03-19T06:08:25.070Z,86.79
2019-03-19T06:10:53.690Z,86.87
2019-03-19T06:13:25.289Z,87.84
2019-03-19T06:15:54.815Z,86.65
2019-03-19T06:18:34.646Z,86.67
2019-03-19T06:20:59.534Z,86.67
2019-03-19T06:23:28.126Z,86.79
2019-03-19T06:25:56.675Z,86.86
2019-03-19T06:28:27.938Z,86.86
2019-03-19T06:30:56.529Z,87.41
2019-03-19T06:33:25.197Z,86.84
2019-03-19T06:35:53.753Z,86.84
2019-03-19T06:38:25.403Z,86.44
2019-03-19T06:40:56.882Z,86.44
2019-03-19T06:43:25.490Z,85.88
2019-03-19T06:45:57.070Z,85.88
2019-03-19T06:48:25.679Z,86.01
2019-03-19T06:51:00.037Z,86.42
2019-03-19T06:53:31.708Z,86.39
2019-03-19T06:56:03.188Z,86.10
2019-03-19T06:58:34.671Z,86.10
2019-03-19T07:01:06.251Z,86.09
2019-03-19T07:03:34.871Z,85.83
2019-03-19T07:06:06.666Z,85.26
2019-03-19T07:08:38.250Z,85.26
2019-03-19T07:11:06.866Z,85.83
2019-03-19T07:13:38.353Z,85.12
2019-03-19T07:16:09.727Z,85.05
2019-03-19T07:18:41.723Z,84.41
2019-03-19T07:21:19.252Z,84.53
2019-03-19T07:23:47.865Z,84.97
2019-03-19T07:26:19.158Z,84.69
2019-03-19T07:28:47.844Z,84.86
2019-03-19T07:31:16.456Z,84.86
2019-03-19T07:33:45.064Z,84.55
2019-03-19T07:36:13.773Z,83.38
2019-03-19T07:38:45.175Z,83.38
2019-03-19T07:41:17.677Z,81.66
2019-03-19T07:43:49.562Z,82.49
2019-03-19T07:46:21.369Z,82.49
2019-03-19T07:48:52.959Z,82.70
2019-03-19T07:51:24.518Z,82.76
2019-03-19T07:53:53.129Z,82.76
2019-03-19T07:56:24.660Z,82.88
2019-03-19T07:58:56.024Z,82.52
2019-03-19T08:01:27.255Z,80.61
2019-03-19T08:03:55.857Z,80.61
2019-03-19T08:06:27.398Z,79.93
2019-03-19T08:08:55.989Z,78.26
2019-03-19T08:11:27.741Z,78.54
2019-03-19T08:13:59.330Z,78.85
2019-03-19T08:16:27.955Z,78.05
2019-03-19T08:18:56.577Z,78.05
2019-03-19T08:21:27.965Z,78.16
2019-03-19T08:23:58.749Z,77.72
2019-03-19T08:26:29.813Z,77.53
2019-03-19T08:29:01.036Z,77.53
2019-03-19T08:31:29.661Z,76.36
2019-03-19T08:34:00.625Z,76.96
2019-03-19T08:36:29.182Z,76.96
2019-03-19T08:39:00.480Z,76.33
2019-03-19T08:41:29.334Z,76.05
2019-03-19T08:44:01.213Z,76.05
2019-03-19T08:46:32.506Z,76.63
2019-03-19T08:49:01.082Z,76.92
2019-03-19T08:51:32.695Z,76.04
2019-03-19T08:54:01.312Z,74.42
2019-03-19T08:56:32.577Z,74.42
2019-03-19T08:59:06.030Z,76.60
2019-03-19T09:01:36.991Z,75.15
2019-03-19T09:04:05.598Z,73.41
2019-03-19T09:06:34.163Z,71.79
2019-03-19T09:09:05.298Z,71.79
2019-03-19T09:11:37.164Z,72.72
2019-03-19T09:14:05.912Z,72.72
2019-03-19T09:16:34.482Z,74.07
2019-03-19T09:19:03.447Z,73.67
2019-03-19T09:21:34.422Z,73.70
2019-03-19T09:24:03.077Z,71.99
2019-03-19T09:26:34.406Z,71.06
2019-03-19T09:29:16.105Z,70.21
2019-03-19T09:31:41.915Z,71.51
2019-03-19T09:34:12.784Z,71.51
2019-03-19T09:36:43.041Z,71.16
2019-03-19T09:39:14.613Z,71.27
2019-03-19T09:41:49.077Z,73.33
2019-03-19T09:44:17.649Z,73.33
2019-03-19T09:46:51.994Z,71.29
2019-03-19T09:49:23.608Z,70.19
2019-03-19T09:51:55.511Z,70.19
2019-03-19T09:54:24.090Z,68.75
2019-03-19T09:56:55.695Z,67.06
2019-03-19T09:59:27.529Z,64.87
2019-03-19T10:01:59.013Z,63.77
2019-03-19T10:04:27.618Z,62.69
2019-03-19T10:07:06.017Z,61.91
2019-03-19T10:09:29.591Z,62.39
2019-03-19T10:12:01.332Z,61.08
2019-03-19T10:14:34.239Z,58.82
2019-03-19T10:17:03.156Z,59.94
2019-03-19T10:19:34.458Z,59.76
2019-03-19T10:22:05.701Z,59.78
2019-03-19T10:24:37.281Z,60.80
2019-03-19T10:27:08.969Z,60.15
2019-03-19T10:29:38.525Z,61.07
2019-03-19T10:32:11.984Z,61.24
2019-03-19T10:34:46.267Z,60.58
2019-03-19T10:37:17.751Z,60.77
2019-03-19T10:39:46.331Z,61.59
2019-03-19T10:42:17.891Z,58.71
2019-03-19T10:44:46.513Z,58.77
2019-03-19T10:47:15.132Z,57.37
2019-03-19T10:49:47.018Z,57.16
2019-03-19T10:52:18.596Z,58.10
2019-03-19T10:54:47.613Z,56.87
2019-03-19T10:57:18.902Z,55.24
2019-03-19T10:59:49.341Z,54.52
2019-03-19T11:02:20.819Z,54.46
2019-03-19T11:04:49.428Z,54.68
2019-03-19T11:07:21.019Z,54.12
2019-03-19T11:09:49.600Z,55.47
2019-03-19T11:12:21.102Z,55.77
2019-03-19T11:14:52.474Z,55.85
2019-03-19T11:17:21.369Z,56.36
2019-03-19T11:19:49.998Z,56.92
2019-03-19T11:22:21.805Z,55.91
2019-03-19T11:24:53.298Z,55.25
2019-03-19T11:27:25.083Z,54.96
2019-03-19T11:29:59.793Z,54.17
2019-03-19T11:32:24.118Z,55.28
2019-03-19T11:34:55.827Z,55.07
2019-03-19T11:37:27.614Z,54.96
2019-03-19T11:39:59.395Z,55.72
2019-03-19T11:42:28.029Z,54.15
2019-03-19T11:44:59.609Z,53.47
2019-03-19T11:47:28.188Z,53.48
2019-03-19T11:49:59.799Z,53.48
2019-03-19T11:52:31.583Z,54.22
2019-03-19T11:55:00.506Z,52.34
2019-03-19T11:57:32.084Z,52.33
2019-03-19T12:00:11.060Z,51.13
2019-03-19T12:02:38.648Z,46.28
2019-03-19T12:05:09.243Z,46.98
2019-03-19T12:07:37.810Z,48.33
2019-03-19T12:10:07.369Z,48.95
2019-03-19T12:12:38.750Z,45.84
2019-03-19T12:15:13.842Z,44.38
2019-03-19T12:17:42.707Z,45.75
2019-03-19T12:20:14.823Z,46.56
2019-03-19T12:22:46.602Z,48.06
2019-03-19T12:25:18.499Z,51.01
2019-03-19T12:27:50.070Z,51.83
2019-03-19T12:30:22.994Z,52.88
2019-03-19T12:32:57.468Z,53.00
2019-03-19T12:35:30.770Z,52.18
2019-03-19T12:38:02.131Z,50.86
2019-03-19T12:40:36.698Z,50.16
2019-03-19T12:43:01.497Z,47.67
2019-03-19T12:45:32.755Z,48.50
2019-03-19T12:48:04.067Z,48.99
2019-03-19T12:50:35.922Z,48.17
2019-03-19T12:53:07.503Z,49.98
2019-03-19T12:55:44.635Z,47.41
2019-03-19T12:58:16.238Z,49.03
2019-03-19T13:00:44.830Z,51.16
2019-03-19T13:03:13.439Z,50.91
2019-03-19T13:05:44.818Z,50.98
2019-03-19T13:08:16.188Z,51.05
2019-03-19T13:10:44.799Z,50.72
2019-03-19T13:13:16.159Z,49.74
2019-03-19T13:15:44.710Z,50.06
2019-03-19T13:18:16.469Z,50.77
2019-03-19T13:20:55.211Z,49.59
2019-03-19T13:23:26.094Z,50.31
2019-03-19T13:25:56.996Z,49.14
2019-03-19T13:28:28.262Z,50.29
2019-03-19T13:30:56.920Z,50.21
2019-03-19T13:33:25.491Z,50.42
2019-03-19T13:35:57.004Z,49.77
2019-03-19T13:38:28.290Z,51.06
2019-03-19T13:40:59.665Z,51.75
2019-03-19T13:43:31.023Z,49.99
2019-03-19T13:46:02.299Z,50.79
2019-03-19T13:48:30.937Z,51.86
2019-03-19T13:51:02.426Z,51.35
2019-03-19T13:53:34.003Z,52.11
2019-03-19T13:56:05.480Z,51.51
2019-03-19T13:58:42.003Z,52.05
2019-03-19T14:01:13.358Z,52.89
2019-03-19T14:03:44.740Z,52.45
2019-03-19T14:06:19.508Z,52.86
2019-03-19T14:08:50.787Z,53.34
2019-03-19T14:11:19.407Z,53.27
2019-03-19T14:13:47.979Z,53.26
2019-03-19T14:16:16.805Z,54.15
2019-03-19T14:18:48.108Z,53.01
2019-03-19T14:21:17.033Z,54.21
2019-03-19T14:23:48.409Z,54.17
2019-03-19T14:26:16.954Z,53.97
2019-03-19T14:28:45.689Z,52.98
2019-03-19T14:31:17.208Z,53.12
2019-03-19T14:33:49.195Z,53.75
2019-03-19T14:36:20.779Z,51.22
2019-03-19T14:38:52.353Z,51.56
2019-03-19T14:41:23.731Z,51.10
2019-03-19T14:43:55.285Z,50.84
2019-03-19T14:46:26.506Z,50.67
2019-03-19T14:48:58.183Z,51.32
2019-03-19T14:51:30.086Z,50.18
2019-03-19T14:54:00.197Z,51.25
2019-03-19T14:56:31.423Z,50.44
2019-03-19T14:59:00.007Z,51.21
2019-03-19T15:01:31.414Z,50.59
2019-03-19T15:04:02.918Z,51.87
2019-03-19T15:06:31.527Z,51.11
2019-03-19T15:09:00.109Z,51.73
2019-03-19T15:11:28.745Z,51.30
2019-03-19T15:14:00.733Z,48.62
2019-03-19T15:16:29.290Z,49.39
2019-03-19T15:19:00.591Z,48.64
2019-03-19T15:21:31.797Z,49.00
2019-03-19T15:24:07.868Z,49.49
2019-03-19T15:26:36.645Z,47.75
2019-03-19T15:29:05.647Z,49.25
2019-03-19T15:31:42.716Z,48.46
2019-03-19T15:34:17.337Z,48.75
2019-03-19T15:36:45.980Z,48.30
2019-03-19T15:39:14.587Z,48.10
2019-03-19T15:41:46.274Z,47.76
2019-03-19T15:44:20.723Z,46.89
2019-03-19T15:46:49.327Z,45.62
2019-03-19T15:49:20.916Z,46.03
2019-03-19T15:51:49.520Z,45.47
2019-03-19T15:54:21.507Z,47.31
2019-03-19T15:56:53.203Z,47.91
2019-03-19T15:59:25.094Z,45.82
2019-03-19T16:01:56.306Z,46.28
2019-03-19T16:04:27.837Z,47.66
2019-03-19T16:06:56.397Z,48.67
2019-03-19T16:09:27.940Z,49.19
2019-03-19T16:11:59.207Z,49.92
2019-03-19T16:14:27.777Z,50.84
2019-03-19T16:16:56.565Z,51.00
2019-03-19T16:19:28.729Z,51.36
2019-03-19T16:21:58.578Z,52.23
2019-03-19T16:24:29.823Z,52.48
2019-03-19T16:26:58.371Z,52.99
2019-03-19T16:29:58.022Z,53.37
2019-03-19T16:32:30.453Z,53.82
2019-03-19T16:35:01.958Z,54.08
2019-03-19T16:37:33.423Z,55.22
2019-03-19T16:40:02.521Z,57.33
2019-03-19T16:42:35.226Z,56.18
2019-03-19T16:45:09.515Z,56.27
2019-03-19T16:47:38.070Z,57.28
2019-03-19T16:50:20.408Z,58.12
2019-03-19T16:52:58.987Z,57.18
2019-03-19T16:55:30.410Z,59.14
2019-03-19T16:58:01.767Z,58.83
2019-03-19T17:00:33.715Z,59.03
2019-03-19T17:03:13.956Z,58.94
2019-03-19T17:05:45.301Z,60.34
2019-03-19T17:08:14.005Z,59.70
2019-03-19T17:10:45.581Z,59.84
2019-03-19T17:13:17.059Z,60.04
2019-03-19T17:15:48.921Z,59.99
2019-03-19T17:18:17.556Z,60.41
2019-03-19T17:20:46.163Z,60.28
2019-03-19T17:23:17.741Z,61.20
2019-03-19T17:25:46.321Z,61.07
2019-03-19T17:28:22.389Z,62.30
2019-03-19T17:30:48.384Z,60.89
2019-03-19T17:33:20.019Z,60.77
2019-03-19T17:35:48.678Z,61.50
2019-03-19T17:38:20.462Z,62.36
2019-03-19T17:40:52.039Z,62.48
2019-03-19T17:43:23.585Z,62.72
2019-03-19T17:45:52.635Z,62.70
2019-03-19T17:48:24.523Z,64.09
2019-03-19T17:50:56.926Z,64.16
2019-03-19T17:53:25.943Z,65.03
2019-03-19T17:55:54.561Z,65.40
2019-03-19T17:58:23.163Z,65.40
2019-03-19T18:00:56.096Z,65.42
2019-03-19T18:03:24.687Z,65.79
2019-03-19T18:05:53.308Z,66.00
2019-03-19T18:08:24.579Z,66.84
2019-03-19T18:10:53.596Z,68.75
2019-03-19T18:13:25.176Z,66.96
2019-03-19T18:15:53.786Z,67.39
2019-03-19T18:18:24.036Z,68.11
2019-03-19T18:20:52.647Z,68.21
2019-03-19T18:23:21.258Z,68.51
2019-03-19T18:25:49.870Z,68.47
2019-03-19T18:28:18.474Z,70.15
2019-03-19T18:30:52.173Z,70.15
2019-03-19T18:33:25.194Z,70.86
2019-03-19T18:35:56.281Z,70.91
2019-03-19T18:38:27.016Z,70.86
2019-03-19T18:41:08.002Z,71.83
2019-03-19T18:43:41.098Z,71.85
2019-03-19T18:46:11.411Z,71.63
2019-03-19T18:48:42.860Z,71.50
2019-03-19T18:51:17.818Z,72.39
2019-03-19T18:53:46.426Z,72.12
2019-03-19T18:56:18.212Z,73.41
2019-03-19T18:58:49.775Z,73.41
2019-03-19T19:01:18.412Z,74.45
2019-03-19T19:03:55.972Z,74.45
2019-03-19T19:06:30.599Z,74.81
2019-03-19T19:09:02.430Z,75.51
2019-03-19T19:11:31.095Z,76.44
2019-03-19T19:13:59.738Z,76.63
2019-03-19T19:16:28.420Z,75.87
2019-03-19T19:18:57.142Z,76.54
2019-03-19T19:21:28.590Z,76.54
2019-03-19T19:23:59.980Z,76.59
2019-03-19T19:26:28.565Z,76.71
2019-03-19T19:29:00.169Z,77.74
2019-03-19T19:31:32.018Z,78.19
2019-03-19T19:34:00.551Z,78.87
2019-03-19T19:36:32.128Z,79.21
2019-03-19T19:39:05.189Z,79.45
2019-03-19T19:41:33.761Z,79.83
2019-03-19T19:44:02.316Z,80.31
2019-03-19T19:46:34.066Z,80.56
2019-03-19T19:49:05.583Z,81.37
2019-03-19T19:51:36.894Z,82.47
2019-03-19T19:54:05.911Z,82.30
2019-03-19T19:56:37.691Z,82.65
2019-03-19T19:59:08.935Z,82.10
2019-03-19T20:01:40.184Z,83.36
2019-03-19T20:04:12.273Z,83.36
2019-03-19T20:06:41.432Z,83.28
2019-03-19T20:09:11.974Z,83.20
2019-03-19T20:11:46.658Z,83.36
2019-03-19T20:14:18.153Z,82.57
2019-03-19T20:16:46.901Z,82.21
2019-03-19T20:19:16.002Z,82.13
2019-03-19T20:21:48.834Z,82.17
2019-03-19T20:24:20.208Z,82.31
2019-03-19T20:26:48.807Z,82.40
2019-03-19T20:29:17.420Z,82.60
2019-03-19T20:31:45.995Z,82.02
2019-03-19T20:34:14.555Z,82.13
2019-03-19T20:36:49.984Z,82.32
2019-03-19T20:39:18.543Z,82.21
2019-03-19T20:41:47.219Z,81.87
2019-03-19T20:44:15.759Z,82.37
2019-03-19T20:49:23.576Z,81.63
2019-03-19T20:51:57.919Z,81.96
2019-03-19T20:54:26.474Z,81.71
2019-03-19T20:56:55.020Z,81.58
2019-03-19T20:59:23.585Z,81.21
2019-03-19T21:01:52.454Z,81.08
2019-03-19T21:04:22.088Z,81.30
2019-03-19T21:06:56.827Z,81.19
2019-03-19T21:09:25.410Z,81.69
2019-03-19T21:11:53.963Z,83.94
2019-03-19T21:14:28.696Z,84.10
2019-03-19T21:17:00.028Z,84.32
2019-03-19T21:19:28.609Z,84.01
2019-03-19T21:22:03.484Z,84.04
2019-03-19T21:24:32.054Z,84.56
2019-03-19T21:27:03.284Z,84.99
2019-03-19T21:29:32.042Z,84.80
2019-03-19T21:32:00.680Z,84.58
2019-03-19T21:34:32.288Z,85.06
2019-03-19T21:37:01.249Z,85.40
2019-03-19T21:39:30.166Z,86.02
2019-03-19T21:41:58.749Z,86.11
2019-03-19T21:44:27.314Z,86.25
2019-03-19T21:46:55.903Z,86.92
2019-03-19T21:49:30.316Z,87.14
2019-03-19T21:51:58.919Z,87.15
2019-03-19T21:54:27.479Z,87.28
2019-03-19T21:56:56.097Z,87.54
2019-03-19T21:59:27.612Z,87.51
2019-03-19T22:01:59.588Z,87.64
2019-03-19T22:04:28.198Z,87.75
2019-03-19T22:06:56.829Z,88.24
2019-03-19T22:09:25.546Z,88.10
2019-03-19T22:11:54.185Z,87.75
2019-03-19T22:14:22.738Z,87.34
2019-03-19T22:16:54.241Z,87.39
2019-03-19T22:19:26.900Z,87.75
2019-03-19T22:21:55.471Z,88.12
2019-03-19T22:24:24.026Z,87.98
2019-03-19T22:26:55.650Z,88.18
2019-03-19T22:29:26.945Z,87.58
2019-03-19T22:31:58.935Z,87.47
2019-03-19T22:34:27.499Z,87.52
2019-03-19T22:36:59.027Z,87.22
2019-03-19T22:39:30.601Z,87.52
2019-03-19T22:42:05.354Z,88.13
2019-03-19T22:44:37.146Z,88.09
2019-03-19T22:47:08.533Z,87.88
2019-03-19T22:49:40.255Z,88.24
2019-03-19T22:52:09.233Z,88.08
2019-03-19T22:54:40.722Z,88.08
2019-03-19T22:57:13.761Z,87.84
2019-03-19T22:59:45.037Z,87.69
2019-03-19T23:02:18.597Z,88.27
2019-03-19T23:04:49.828Z,88.58
2019-03-19T23:07:21.433Z,88.50
2019-03-19T23:09:53.522Z,88.32
2019-03-19T23:12:24.896Z,88.36
2019-03-19T23:14:53.550Z,88.22
2019-03-19T23:17:22.150Z,88.03
2019-03-19T23:19:51.866Z,88.49
2019-03-19T23:22:25.211Z,88.54
2019-03-19T23:24:56.673Z,88.93
2019-03-19T23:27:27.955Z,88.98
2019-03-19T23:29:59.229Z,88.92
2019-03-19T23:32:27.845Z,89.07
2019-03-19T23:34:56.478Z,89.99
2019-03-19T23:37:28.049Z,90.37
2019-03-19T23:39:59.652Z,90.39
2019-03-19T23:42:30.924Z,90.83
2019-03-19T23:45:02.294Z,90.83
2019-03-19T23:47:33.881Z,90.83
2019-03-19T23:50:04.843Z,91.42
2019-03-19T23:52:33.865Z,91.99
2019-03-19T23:55:08.211Z,91.96
2019-03-19T23:57:42.724Z,91.95
